« Back
NWS Peachtree City, Ga » Text Product » CSG Terminal Aerodrome Forecast


Printer-friendly Version
Current Version              Previous Versions:   1  2  3  4  5  6  7  8  9  

Terminal Aerodrome Forecast

886
FTUS42 KFFC 282200 AAB
TAFCSG
TAF AMD
KCSG 282205Z 2822/2918 30010G18KT P6SM VCTS SCT050CB
     FM290000 31009KT P6SM SCT090
     FM290400 32007KT P6SM FEW120
     FM291600 34010G18KT P6SM SCT050=

USA.gov is the U.S. government's official web portal to all federal, state and local government web resources and services.